Terminal Aerodrome Forecast
Issued by NWS

Home | Current Version | Previous Version | Text Only | Print | Product List | Glossary On
Versions: 1 2 3 4 5 6 7 8 9 10 11 12 13 14
000
FTUS44 KTSA 190500
TAFRVS
TAF
KRVS 190520Z 1906/2006 00000KT P6SM FEW040
     FM190800 00000KT 4SM BR SCT025
      TEMPO 1910/1914 1SM BR SCT005
     FM191500 17006KT P6SM SCT040
     FM200100 00000KT P6SM SCT250=

USA.gov is the U.S. government's official web portal to all federal, state and local government web resources and services.